Time;durP1;ratioP1;P1;durP2;ratioP2;P2;SDS_P1;SDS_P2;PMS_P1;PMS_P2;Temp;Humidity;BMP_temperature;BMP_pressure;BME280_temperature;BME280_humidity;BME280_pressure;Samples;Min_cycle;Max_cycle;Signal;HPM_P1;HPM_P2
2023/08/15 00:02:14;;;;;;;13.10;4.57;;;;;;;-145.69;nan;51771.09;5113246;28;20193;-82
2023/08/15 00:04:40;;;;;;;8.25;4.85;;;;;;;-145.69;nan;51790.91;5113444;28;20197;-82
2023/08/15 00:07:06;;;;;;;8.70;5.00;;;;;;;-145.69;nan;51808.72;5113113;28;20253;-82
2023/08/15 00:09:34;;;;;;;6.40;4.43;;;;;;;-145.69;nan;51806.75;5112692;28;20201;-83
2023/08/15 00:12:01;;;;;;;8.57;4.78;;;;;;;-145.69;nan;51790.91;5113243;28;20215;-83
2023/08/15 00:14:27;;;;;;;12.13;4.90;;;;;;;-145.69;nan;51812.69;5112898;28;20221;-82
2023/08/15 00:16:54;;;;;;;7.90;4.60;;;;;;;-145.69;nan;51806.75;5113120;28;20213;-82
2023/08/15 00:19:20;;;;;;;9.73;5.05;;;;;;;-145.69;nan;51794.88;5113054;28;20224;-81
2023/08/15 00:21:47;;;;;;;9.35;4.38;;;;;;;-145.69;nan;51806.75;5113312;28;20197;-81
2023/08/15 00:24:13;;;;;;;9.40;5.32;;;;;;;-145.69;nan;51806.75;5113179;28;20193;-81
2023/08/15 00:26:41;;;;;;;6.18;4.38;;;;;;;-145.69;nan;51816.66;5113111;28;20202;-81
2023/08/15 00:29:08;;;;;;;8.18;4.90;;;;;;;-145.69;nan;51822.59;5112987;28;20194;-82
2023/08/15 00:31:34;;;;;;;7.03;5.00;;;;;;;-145.69;nan;51814.66;5112819;28;20201;-82
2023/08/15 00:34:01;;;;;;;7.35;5.25;;;;;;;-145.69;nan;51798.81;5112967;28;20656;-82
2023/08/15 00:36:27;;;;;;;13.45;5.40;;;;;;;-145.69;nan;51860.22;5113035;28;20220;-82
2023/08/15 00:38:54;;;;;;;7.43;5.28;;;;;;;-145.69;nan;51818.63;5112746;28;20236;-83
2023/08/15 00:41:20;;;;;;;9.68;4.88;;;;;;;-145.69;nan;51846.34;5112744;28;20200;-82
2023/08/15 00:43:48;;;;;;;7.28;4.55;;;;;;;-145.69;nan;51806.75;5112949;28;20205;-83
2023/08/15 00:46:15;;;;;;;8.48;4.97;;;;;;;-145.69;nan;51822.59;5112379;28;20204;-82
2023/08/15 00:48:42;;;;;;;11.68;4.80;;;;;;;-145.69;nan;51806.75;5112790;28;20197;-82
2023/08/15 00:51:09;;;;;;;11.02;5.57;;;;;;;-145.69;nan;51844.38;5112709;28;20193;-82
2023/08/15 00:53:36;;;;;;;8.68;4.93;;;;;;;-145.69;nan;51830.50;5112884;28;20247;-83
2023/08/15 00:56:04;;;;;;;7.22;4.82;;;;;;;-145.69;nan;51816.66;5112797;28;20198;-82
2023/08/15 00:58:31;;;;;;;8.63;5.45;;;;;;;-145.69;nan;51834.47;5113015;28;20564;-82
2023/08/15 01:01:00;;;;;;;8.02;4.85;;;;;;;-145.69;nan;51848.34;5098360;28;20556;-82
2023/08/15 01:03:26;;;;;;;13.32;5.53;;;;;;;-145.69;nan;51858.22;5116545;28;20205;-82
2023/08/15 01:05:54;;;;;;;10.68;4.97;;;;;;;-145.69;nan;51842.38;5098547;28;20194;-81
2023/08/15 01:08:20;;;;;;;8.00;4.85;;;;;;;-145.69;nan;51830.50;5115405;28;20707;-83
2023/08/15 01:10:47;;;;;;;7.75;5.10;;;;;;;-145.69;nan;51842.38;5097756;28;20525;-83
2023/08/15 01:13:23;;;;;;;11.35;5.55;;;;;;;-145.69;nan;51818.63;5116192;28;20225;-83
2023/08/15 01:15:52;;;;;;;12.82;5.85;;;;;;;-145.69;nan;51810.72;5114951;28;20679;-83
2023/08/15 01:18:26;;;;;;;7.88;5.43;;;;;;;-145.69;nan;51854.28;5116332;28;20197;-83
2023/08/15 01:20:55;;;;;;;11.55;5.65;;;;;;;-145.69;nan;51828.53;5113928;27;20209;-82
2023/08/15 01:23:29;;;;;;;12.07;5.35;;;;;;;-145.69;nan;51824.56;5115949;28;20226;-82
2023/08/15 01:25:57;;;;;;;10.20;5.65;;;;;;;-145.69;nan;51830.50;5116039;28;20698;-82
2023/08/15 01:28:23;;;;;;;8.18;5.10;;;;;;;-145.69;nan;51854.28;5115929;28;20220;-82
2023/08/15 01:30:55;;;;;;;10.68;5.53;;;;;;;-145.69;nan;51834.47;5116034;28;20201;-82
2023/08/15 01:33:29;;;;;;;10.65;5.30;;;;;;;-145.69;nan;51830.50;5115666;28;20193;-82
2023/08/15 01:36:02;;;;;;;9.25;5.07;;;;;;;-145.69;nan;51806.75;5097565;28;20197;-81
2023/08/15 01:38:38;;;;;;;7.38;4.95;;;;;;;-145.69;nan;51822.59;5115158;28;20198;-82
2023/08/15 01:41:08;;;;;;;10.10;4.82;;;;;;;-145.69;nan;51854.28;5115384;28;20193;-82
2023/08/15 01:43:36;;;;;;;9.38;5.40;;;;;;;-145.69;nan;51858.22;5115719;28;20201;-81
2023/08/15 01:46:03;;;;;;;10.45;5.18;;;;;;;-145.69;nan;51826.56;5097441;28;20197;-82
2023/08/15 01:48:29;;;;;;;11.45;5.00;;;;;;;-145.69;nan;51836.44;5115460;28;20221;-83
2023/08/15 01:50:56;;;;;;;7.80;4.72;;;;;;;-145.69;nan;51848.34;5115469;28;20206;-82
2023/08/15 01:53:22;;;;;;;9.15;5.63;;;;;;;-145.69;nan;51852.28;5115337;28;20655;-82
2023/08/15 01:55:49;;;;;;;12.02;5.50;;;;;;;-145.69;nan;51830.50;5115361;28;20688;-82
2023/08/15 01:58:16;;;;;;;8.50;5.85;;;;;;;-145.69;nan;51826.56;5115506;28;20224;-82
2023/08/15 02:00:43;;;;;;;9.45;5.15;;;;;;;-145.69;nan;51832.50;5115055;28;20193;-82
2023/08/15 02:03:10;;;;;;;7.32;4.80;;;;;;;-145.69;nan;51862.19;5115084;28;20197;-82
2023/08/15 02:05:37;;;;;;;7.35;4.82;;;;;;;-145.69;nan;51885.94;5115455;28;20205;-83
2023/08/15 02:08:04;;;;;;;8.30;5.13;;;;;;;-145.69;nan;51866.16;5115015;28;20222;-83
2023/08/15 02:10:30;;;;;;;10.55;5.85;;;;;;;-145.69;nan;51834.47;5113991;28;20202;-82
2023/08/15 02:12:57;;;;;;;10.82;5.82;;;;;;;-145.69;nan;51854.28;5114668;28;20197;-82
2023/08/15 02:15:25;;;;;;;13.70;5.95;;;;;;;-145.69;nan;51864.16;5114968;28;20541;-82
2023/08/15 02:17:51;;;;;;;11.25;6.35;;;;;;;-145.69;nan;51846.34;5115160;28;20194;-81
2023/08/15 02:20:18;;;;;;;11.25;6.50;;;;;;;-145.69;nan;51866.16;5115074;28;20221;-82
2023/08/15 02:22:45;;;;;;;12.30;6.63;;;;;;;-145.69;nan;51850.31;5096760;28;20594;-82
2023/08/15 02:25:11;;;;;;;10.05;6.05;;;;;;;-145.69;nan;51846.34;5096995;28;20201;-82
2023/08/15 02:27:38;;;;;;;13.27;5.85;;;;;;;-145.69;nan;51874.06;5114666;28;20193;-82
2023/08/15 02:30:05;;;;;;;12.13;6.90;;;;;;;-145.69;nan;51854.28;5114931;28;20229;-82
2023/08/15 02:32:33;;;;;;;12.63;5.90;;;;;;;-145.69;nan;51862.19;5115000;28;20194;-82
2023/08/15 02:34:59;;;;;;;9.38;5.65;;;;;;;-145.69;nan;51858.22;5114745;28;20208;-82
2023/08/15 02:37:26;;;;;;;18.48;5.95;;;;;;;-145.69;nan;51826.56;5114618;28;20201;-82
2023/08/15 02:39:52;;;;;;;12.73;5.68;;;;;;;-145.69;nan;51846.34;5114375;28;20201;-82
2023/08/15 02:42:19;;;;;;;10.07;5.38;;;;;;;-145.69;nan;51854.28;5114359;28;20197;-82
2023/08/15 02:44:45;;;;;;;12.35;5.20;;;;;;;-145.69;nan;51860.22;5114252;28;20201;-82
2023/08/15 02:47:12;;;;;;;17.63;5.30;;;;;;;-145.69;nan;51846.34;5113975;28;20194;-82
2023/08/15 02:49:40;;;;;;;7.30;5.00;;;;;;;-145.69;nan;51862.19;5113919;28;20217;-82
2023/08/15 02:52:06;;;;;;;13.57;5.10;;;;;;;-145.69;nan;51850.31;5114002;28;20201;-82
2023/08/15 02:54:33;;;;;;;9.20;5.10;;;;;;;-145.69;nan;51870.13;5114278;28;20201;-82
2023/08/15 02:56:59;;;;;;;10.10;5.10;;;;;;;-145.69;nan;51866.16;5114178;28;20193;-82
2023/08/15 02:59:26;;;;;;;10.85;4.65;;;;;;;-145.69;nan;51864.16;5114329;28;20197;-81
2023/08/15 03:01:52;;;;;;;9.90;5.28;;;;;;;-145.69;nan;51870.13;5114196;28;20553;-83
2023/08/15 03:04:19;;;;;;;9.45;5.07;;;;;;;-145.69;nan;51826.56;5114469;28;20205;-82
2023/08/15 03:06:47;;;;;;;11.18;5.00;;;;;;;-145.69;nan;51868.13;5114144;28;20205;-82
2023/08/15 03:09:14;;;;;;;9.88;4.97;;;;;;;-145.69;nan;51870.13;5129346;27;20217;-82
2023/08/15 03:11:40;;;;;;;9.02;4.55;;;;;;;-145.69;nan;51858.22;5102159;28;20190;-82
2023/08/15 03:14:07;;;;;;;8.38;4.95;;;;;;;-145.69;nan;51882.00;5093677;28;20226;-82
2023/08/15 03:16:33;;;;;;;10.10;4.80;;;;;;;-145.69;nan;51858.22;5098007;28;20204;-82
2023/08/15 03:19:00;;;;;;;8.68;4.72;;;;;;;-145.69;nan;51868.13;5114066;28;20202;-83
2023/08/15 03:21:26;;;;;;;15.80;5.63;;;;;;;-145.69;nan;51846.34;5113835;28;20193;-83
2023/08/15 03:23:54;;;;;;;14.77;4.85;;;;;;;-145.69;nan;51854.28;5113959;28;20217;-83
2023/08/15 03:26:21;;;;;;;9.68;4.45;;;;;;;-145.69;nan;51897.84;5130163;27;20204;-82
2023/08/15 03:28:48;;;;;;;9.65;4.57;;;;;;;-145.69;nan;51860.22;5099551;27;20214;-81
2023/08/15 03:31:14;;;;;;;7.72;4.22;;;;;;;-145.69;nan;51850.31;5093565;28;20202;-82
2023/08/15 03:33:41;;;;;;;12.75;5.45;;;;;;;-145.69;nan;51911.69;5109345;28;20197;-81
2023/08/15 03:36:07;;;;;;;11.95;4.68;;;;;;;-145.69;nan;51883.97;5113676;28;20198;-81
2023/08/15 03:38:34;;;;;;;12.65;5.28;;;;;;;-145.69;nan;51862.19;5113268;28;20202;-81
2023/08/15 03:41:04;;;;;;;12.80;5.00;;;;;;;-145.69;nan;51852.28;5113559;28;20190;-82
2023/08/15 03:43:31;;;;;;;11.98;5.10;;;;;;;-145.69;nan;51891.88;5113809;28;20198;-82
2023/08/15 03:45:57;;;;;;;18.77;5.18;;;;;;;-145.69;nan;51860.22;5113753;28;20205;-83
2023/08/15 03:48:24;;;;;;;8.52;4.55;;;;;;;-145.69;nan;51858.22;5113174;28;20200;-83
2023/08/15 03:50:53;;;;;;;10.75;4.13;;;;;;;-145.69;nan;51868.13;5113361;28;20235;-82
2023/08/15 03:53:20;;;;;;;10.57;5.00;;;;;;;-145.69;nan;51878.03;5113430;28;20620;-83
2023/08/15 03:55:47;;;;;;;11.07;4.82;;;;;;;-145.69;nan;51874.06;5113546;28;20199;-84
2023/08/15 03:58:15;;;;;;;12.30;5.45;;;;;;;-145.69;nan;51864.16;5113525;28;20284;-82
2023/08/15 04:00:43;;;;;;;8.90;4.57;;;;;;;-145.69;nan;51882.00;5113043;28;20283;-82
2023/08/15 04:03:09;;;;;;;12.45;4.85;;;;;;;-145.69;nan;51870.13;5113304;28;20208;-82
2023/08/15 04:05:36;;;;;;;8.02;5.00;;;;;;;-145.69;nan;51844.38;5113198;28;20199;-81
2023/08/15 04:08:02;;;;;;;7.07;4.30;;;;;;;-145.69;nan;51856.25;5112954;28;20193;-82
2023/08/15 04:10:29;;;;;;;9.50;4.35;;;;;;;-145.69;nan;51854.28;5113180;28;20225;-82
2023/08/15 04:12:56;;;;;;;19.15;4.45;;;;;;;-145.69;nan;51868.13;5112896;28;20206;-81
2023/08/15 04:15:23;;;;;;;12.20;5.00;;;;;;;-145.69;nan;51850.31;5113200;28;20206;-82
2023/08/15 04:17:50;;;;;;;11.70;4.13;;;;;;;-145.69;nan;51882.00;5113194;28;20272;-82
2023/08/15 04:20:17;;;;;;;8.90;4.10;;;;;;;-145.69;nan;51846.34;5113123;28;20193;-82
2023/08/15 04:22:43;;;;;;;9.10;4.50;;;;;;;-145.69;nan;51862.19;5113236;28;20208;-82
2023/08/15 04:25:10;;;;;;;11.32;4.40;;;;;;;-145.69;nan;51874.06;5113083;28;20292;-82
2023/08/15 04:27:37;;;;;;;11.95;4.65;;;;;;;-145.69;nan;51862.19;5113008;28;20225;-82
2023/08/15 04:30:04;;;;;;;10.18;4.32;;;;;;;-145.69;nan;51876.06;5112952;28;20221;-82
2023/08/15 04:32:32;;;;;;;11.00;4.18;;;;;;;-145.69;nan;51850.31;5112839;28;20216;-81
2023/08/15 04:34:59;;;;;;;9.63;4.35;;;;;;;-145.69;nan;51852.28;5115571;28;20197;-81
2023/08/15 04:37:25;;;;;;;8.60;3.80;;;;;;;-145.69;nan;51850.31;5116951;28;20203;-81
2023/08/15 04:39:51;;;;;;;12.15;4.70;;;;;;;-145.69;nan;51856.25;5116631;28;20206;-81
2023/08/15 04:42:21;;;;;;;8.10;4.22;;;;;;;-145.69;nan;51870.13;5116265;28;20552;-83
2023/08/15 04:44:47;;;;;;;8.18;4.03;;;;;;;-145.69;nan;51878.03;5116522;28;20194;-82
2023/08/15 04:47:15;;;;;;;7.50;4.93;;;;;;;-145.69;nan;51870.13;5115836;28;20202;-82
2023/08/15 04:49:43;;;;;;;8.35;4.55;;;;;;;-145.69;nan;51866.16;5116761;28;20221;-82
2023/08/15 04:52:10;;;;;;;6.10;4.63;;;;;;;-145.69;nan;51864.16;5116735;28;20246;-81
2023/08/15 04:54:36;;;;;;;8.98;4.95;;;;;;;-145.69;nan;51872.09;5116771;28;20200;-81
2023/08/15 04:57:03;;;;;;;12.13;5.18;;;;;;;-145.69;nan;51864.16;5115994;28;20637;-82
2023/08/15 04:59:29;;;;;;;9.35;4.95;;;;;;;-145.69;nan;51850.31;5116373;28;20200;-82
2023/08/15 05:01:56;;;;;;;11.90;5.25;;;;;;;-145.69;nan;51885.94;5116406;28;20556;-82
2023/08/15 05:04:22;;;;;;;8.95;4.82;;;;;;;-145.69;nan;51862.19;5113280;28;20193;-81
2023/08/15 05:06:50;;;;;;;7.05;4.68;;;;;;;-145.69;nan;51874.06;5116259;28;20205;-82
2023/08/15 05:09:16;;;;;;;9.27;5.13;;;;;;;-145.69;nan;51838.44;5116568;28;20217;-82
2023/08/15 05:11:45;;;;;;;6.90;4.50;;;;;;;-145.69;nan;51874.06;5116364;28;20652;-81
2023/08/15 05:14:13;;;;;;;11.10;4.57;;;;;;;-145.69;nan;51862.19;5116013;28;20331;-82
2023/08/15 05:16:39;;;;;;;8.68;4.45;;;;;;;-145.69;nan;51887.94;5112290;28;20243;-81
2023/08/15 05:19:06;;;;;;;12.18;5.07;;;;;;;-145.69;nan;51854.28;5116334;28;20201;-81
2023/08/15 05:21:32;;;;;;;8.40;4.90;;;;;;;-145.69;nan;51850.31;5116123;28;20564;-82
2023/08/15 05:24:00;;;;;;;12.15;5.40;;;;;;;-145.69;nan;51870.13;5116331;28;20198;-81
2023/08/15 05:26:27;;;;;;;9.48;5.07;;;;;;;-145.69;nan;51862.19;5116043;28;20197;-81
2023/08/15 05:28:53;;;;;;;16.33;5.60;;;;;;;-145.69;nan;51848.34;5115614;27;20208;-82
2023/08/15 05:31:20;;;;;;;15.07;5.57;;;;;;;-145.69;nan;51848.34;5115979;28;20668;-82
2023/08/15 05:33:47;;;;;;;11.05;5.05;;;;;;;-145.69;nan;51838.44;5116079;28;20201;-81
2023/08/15 05:36:13;;;;;;;12.88;5.63;;;;;;;-145.69;nan;51798.81;5115860;28;20197;-82
2023/08/15 05:38:39;;;;;;;16.00;6.00;;;;;;;-145.69;nan;51868.13;5115656;28;20201;-81
2023/08/15 05:41:07;;;;;;;10.80;5.32;;;;;;;-145.69;nan;51824.56;5115832;28;20205;-82
2023/08/15 05:43:34;;;;;;;11.07;5.13;;;;;;;-145.69;nan;51852.28;5115738;28;20719;-82
2023/08/15 05:46:00;;;;;;;8.68;5.18;;;;;;;-145.69;nan;51834.47;5115318;28;20197;-82
2023/08/15 05:48:27;;;;;;;10.88;4.32;;;;;;;-145.69;nan;51828.53;5115562;28;20197;-82
2023/08/15 05:50:53;;;;;;;9.68;5.18;;;;;;;-145.69;nan;51820.59;5115620;28;20224;-82
2023/08/15 05:53:20;;;;;;;11.13;4.32;;;;;;;-145.69;nan;51858.22;5115632;28;20197;-81
2023/08/15 05:55:46;;;;;;;13.10;4.53;;;;;;;-145.69;nan;51822.59;5115412;28;20198;-82
2023/08/15 05:58:14;;;;;;;10.43;4.03;;;;;;;-145.69;nan;51824.56;5115143;28;20209;-82
2023/08/15 06:00:41;;;;;;;14.98;4.18;;;;;;;-145.69;nan;51854.28;5115602;28;20198;-83
2023/08/15 06:03:07;;;;;;;6.63;4.00;;;;;;;-145.69;nan;51818.63;5115576;28;20201;-81
2023/08/15 06:05:34;;;;;;;9.68;4.00;;;;;;;-145.69;nan;51836.44;5115338;28;20263;-81
2023/08/15 06:08:03;;;;;;;10.52;4.40;;;;;;;-145.69;nan;51786.94;5115375;28;20201;-86
2023/08/15 06:10:30;;;;;;;8.65;4.18;;;;;;;-145.69;nan;51826.56;5115250;28;20228;-83
2023/08/15 06:12:56;;;;;;;9.02;4.75;;;;;;;-145.69;nan;51794.88;5114813;28;20217;-82
2023/08/15 06:15:24;;;;;;;5.82;3.65;;;;;;;-145.69;nan;51786.94;5114555;28;20189;-83
2023/08/15 06:17:51;;;;;;;7.47;4.13;;;;;;;-145.69;nan;51802.78;5115083;28;20208;-82
2023/08/15 06:20:17;;;;;;;8.23;3.97;;;;;;;-145.69;nan;51800.81;5115149;28;20201;-83
2023/08/15 06:22:44;;;;;;;7.80;4.30;;;;;;;-145.69;nan;51792.88;5114785;28;20202;-83
2023/08/15 06:25:10;;;;;;;9.35;3.78;;;;;;;-145.69;nan;51794.88;5114924;28;20197;-83
2023/08/15 06:27:36;;;;;;;6.53;3.70;;;;;;;-145.69;nan;51784.97;5115365;28;20200;-82
2023/08/15 06:30:03;;;;;;;8.38;3.70;;;;;;;-145.69;nan;51810.72;5114755;28;20248;-83
2023/08/15 06:32:33;;;;;;;9.50;4.00;;;;;;;-145.69;nan;51775.06;5114827;28;20197;-83
2023/08/15 06:35:03;;;;;;;7.80;3.92;;;;;;;-145.69;nan;51775.06;5114796;28;20205;-83
2023/08/15 06:37:29;;;;;;;12.10;3.70;;;;;;;-145.69;nan;51755.25;5114516;28;20552;-83
2023/08/15 06:39:56;;;;;;;7.05;3.58;;;;;;;-145.69;nan;51792.88;5114111;28;20555;-83
2023/08/15 06:42:22;;;;;;;7.28;3.60;;;;;;;-145.69;nan;51759.22;5110323;28;20196;-83
2023/08/15 06:44:48;;;;;;;7.65;3.47;;;;;;;-145.69;nan;51755.25;5114757;28;20197;-83
2023/08/15 06:47:15;;;;;;;7.03;3.40;;;;;;;-145.69;nan;51775.06;5114391;28;20203;-83
2023/08/15 06:49:43;;;;;;;5.90;3.30;;;;;;;-145.69;nan;51733.50;5114593;28;20227;-83
2023/08/15 06:52:09;;;;;;;9.60;3.20;;;;;;;-145.69;nan;51743.38;5114364;28;20198;-83
2023/08/15 06:54:36;;;;;;;9.38;3.45;;;;;;;-145.69;nan;51727.53;5114325;28;20193;-83
2023/08/15 06:57:02;;;;;;;6.20;3.20;;;;;;;-145.69;nan;51757.25;5113613;28;20193;-82
2023/08/15 06:59:35;;;;;;;8.38;3.30;;;;;;;-145.69;nan;51731.50;5114332;28;20228;-83
2023/08/15 07:02:01;;;;;;;5.70;3.35;;;;;;;-145.69;nan;51731.50;5114046;28;20262;-83
2023/08/15 07:04:27;;;;;;;6.43;3.58;;;;;;;-145.69;nan;51715.66;5113982;28;20193;-82
2023/08/15 07:06:57;;;;;;;6.25;3.28;;;;;;;-145.69;nan;51719.63;5113924;28;20663;-83
2023/08/15 07:09:24;;;;;;;7.13;3.33;;;;;;;-145.69;nan;51731.50;5109860;28;20276;-83
2023/08/15 07:11:51;;;;;;;8.45;3.53;;;;;;;-145.69;nan;51739.44;5113531;28;20196;-83
2023/08/15 07:14:17;;;;;;;8.15;2.90;;;;;;;-145.69;nan;51737.44;5096227;28;20229;-83
2023/08/15 07:16:43;;;;;;;5.30;3.08;;;;;;;-145.69;nan;51711.72;5093836;28;20210;-83
2023/08/15 07:19:10;;;;;;;8.05;2.85;;;;;;;-145.69;nan;51711.72;5120516;27;20207;-83
2023/08/15 07:21:36;;;;;;;7.82;3.28;;;;;;;-145.69;nan;51719.63;5121244;27;20193;-84
2023/08/15 07:24:05;;;;;;;4.78;3.00;;;;;;;-145.69;nan;51743.38;5113766;28;20194;-81
2023/08/15 07:26:32;;;;;;;6.90;3.28;;;;;;;-145.69;nan;51759.22;5111678;28;20679;-80
2023/08/15 07:28:58;;;;;;;5.93;3.30;;;;;;;-145.69;nan;51717.66;5113776;28;20670;-83
2023/08/15 07:31:24;;;;;;;8.10;3.17;;;;;;;-145.69;nan;51733.50;5113746;28;20229;-83
2023/08/15 07:33:51;;;;;;;8.45;3.22;;;;;;;-145.69;nan;51715.66;5113673;28;20204;-83
2023/08/15 07:36:18;;;;;;;6.28;3.17;;;;;;;-145.69;nan;51723.59;5113720;28;20201;-83
2023/08/15 07:38:44;;;;;;;7.32;3.17;;;;;;;-145.69;nan;51731.50;5113359;28;20197;-83
2023/08/15 07:41:12;;;;;;;6.07;2.80;;;;;;;-145.69;nan;51699.81;5113289;28;20204;-83
2023/08/15 07:43:38;;;;;;;13.50;3.22;;;;;;;-145.69;nan;51739.44;5113644;28;20193;-83
2023/08/15 07:46:05;;;;;;;5.18;3.20;;;;;;;-145.69;nan;51691.91;5113543;28;20193;-83
2023/08/15 07:48:31;;;;;;;6.53;3.25;;;;;;;-145.69;nan;51711.72;5113408;28;20197;-83
2023/08/15 07:50:58;;;;;;;7.03;3.38;;;;;;;-145.69;nan;51715.66;5113329;28;20225;-83
2023/08/15 07:53:25;;;;;;;9.65;2.88;;;;;;;-145.69;nan;51687.94;5113378;28;20189;-82
2023/08/15 07:55:51;;;;;;;7.13;2.88;;;;;;;-145.69;nan;51691.91;5113432;28;20556;-84
2023/08/15 07:58:19;;;;;;;5.90;2.83;;;;;;;-145.69;nan;51693.88;5113041;28;20662;-83
2023/08/15 08:00:45;;;;;;;7.35;2.78;;;;;;;-145.69;nan;51687.94;5113393;28;20568;-83
2023/08/15 08:03:12;;;;;;;6.47;2.78;;;;;;;-145.69;nan;51664.19;5112883;28;20196;-83
2023/08/15 08:05:38;;;;;;;8.05;2.97;;;;;;;-145.69;nan;51664.19;5110358;28;20197;-82
2023/08/15 08:08:05;;;;;;;6.30;2.72;;;;;;;-145.69;nan;51680.03;5113234;28;20220;-81
2023/08/15 08:10:32;;;;;;;8.45;2.80;;;;;;;-145.69;nan;51664.19;5116958;28;20259;-82
2023/08/15 08:12:59;;;;;;;5.75;2.90;;;;;;;-145.69;nan;51652.31;5117122;28;20221;-81
2023/08/15 08:15:28;;;;;;;6.68;2.50;;;;;;;-145.69;nan;51652.31;5105646;28;20197;-80
2023/08/15 08:17:54;;;;;;;3.88;2.15;;;;;;;-145.69;nan;51676.06;5101401;28;20193;-81
2023/08/15 08:20:21;;;;;;;7.93;2.35;;;;;;;-145.69;nan;51640.44;5106413;28;20205;-81
2023/08/15 08:22:48;;;;;;;5.55;2.35;;;;;;;-145.69;nan;51660.22;5096079;28;20197;-82
2023/08/15 08:25:16;;;;;;;5.43;2.20;;;;;;;-145.69;nan;51652.31;5117360;28;20233;-82
2023/08/15 08:27:43;;;;;;;4.78;2.00;;;;;;;-145.69;nan;51695.88;5116919;28;20189;-81
2023/08/15 08:30:10;;;;;;;11.45;2.25;;;;;;;-145.69;nan;51695.88;5117337;28;20575;-81
2023/08/15 08:32:38;;;;;;;6.32;2.08;;;;;;;-145.69;nan;51680.03;5116902;28;20201;-82
2023/08/15 08:35:06;;;;;;;8.25;2.03;;;;;;;-145.69;nan;51689.94;5117545;28;20222;-82
2023/08/15 08:37:32;;;;;;;8.88;2.10;;;;;;;-145.69;nan;51699.81;5117003;28;20204;-81
2023/08/15 08:39:59;;;;;;;9.40;2.00;;;;;;;-145.69;nan;51691.91;5117028;28;20197;-84
2023/08/15 08:42:25;;;;;;;4.60;2.28;;;;;;;-145.69;nan;51687.94;5116717;28;20208;-81
2023/08/15 08:44:53;;;;;;;7.20;2.42;;;;;;;-145.69;nan;51695.88;5116840;28;20216;-82
2023/08/15 08:47:21;;;;;;;9.20;1.92;;;;;;;-145.69;nan;51699.81;5117309;28;20206;-81
2023/08/15 08:49:52;;;;;;;5.90;1.90;;;;;;;-145.69;nan;51727.53;5116306;28;20193;-82
2023/08/15 08:52:19;;;;;;;5.10;1.90;;;;;;;-145.69;nan;51699.81;5116759;28;20193;-81
2023/08/15 08:54:46;;;;;;;5.55;1.92;;;;;;;-145.69;nan;51711.72;5116702;28;20201;-82
2023/08/15 08:57:12;;;;;;;3.90;1.85;;;;;;;-145.69;nan;51701.81;5116797;28;20225;-82
2023/08/15 08:59:43;;;;;;;4.38;1.83;;;;;;;-145.69;nan;51662.22;5116766;28;20600;-83
2023/08/15 09:02:12;;;;;;;2.92;1.60;;;;;;;-145.69;nan;51656.25;5116778;28;20198;-82
2023/08/15 09:04:39;;;;;;;4.97;2.13;;;;;;;-145.69;nan;51680.03;5116585;28;20711;-82
2023/08/15 09:07:06;;;;;;;5.85;1.75;;;;;;;-145.69;nan;51648.34;5116325;28;20201;-81
2023/08/15 09:09:33;;;;;;;3.88;1.50;;;;;;;-145.69;nan;51674.09;5113145;28;20191;-82
2023/08/15 09:11:59;;;;;;;4.07;1.80;;;;;;;-145.69;nan;51668.16;5118346;27;20217;-81
2023/08/15 09:14:26;;;;;;;3.70;1.63;;;;;;;-145.69;nan;51650.31;5116356;28;20229;-83
2023/08/15 09:16:52;;;;;;;8.68;1.85;;;;;;;-145.69;nan;51656.25;5116273;28;20194;-82
2023/08/15 09:19:19;;;;;;;2.95;1.42;;;;;;;-145.69;nan;51648.34;5116164;28;20201;-81
2023/08/15 09:21:45;;;;;;;6.45;1.88;;;;;;;-145.69;nan;51638.44;5116360;28;20205;-81
2023/08/15 09:24:13;;;;;;;4.07;1.70;;;;;;;-145.69;nan;51620.63;5116365;28;20198;-81
2023/08/15 09:26:40;;;;;;;3.83;1.50;;;;;;;-145.69;nan;51652.31;5107344;28;20198;-80
2023/08/15 09:29:06;;;;;;;5.55;1.80;;;;;;;-145.69;nan;51648.34;5113668;28;20229;-81
2023/08/15 09:31:33;;;;;;;3.72;1.40;;;;;;;-145.69;nan;51660.22;5115616;28;20699;-82
2023/08/15 09:33:59;;;;;;;6.07;1.67;;;;;;;-145.69;nan;51628.53;5115817;28;20201;-81
2023/08/15 09:36:27;;;;;;;4.03;1.73;;;;;;;-145.69;nan;51626.56;5115918;28;20197;-81
2023/08/15 09:38:57;;;;;;;4.20;1.70;;;;;;;-145.69;nan;51602.81;5115242;28;20663;-82
2023/08/15 09:41:25;;;;;;;5.50;1.63;;;;;;;-145.69;nan;51644.38;5115806;28;20605;-82
2023/08/15 09:43:53;;;;;;;4.47;1.60;;;;;;;-145.69;nan;51596.88;5115794;28;20197;-81
2023/08/15 09:46:20;;;;;;;2.88;1.40;;;;;;;-145.69;nan;51608.75;5115854;28;20204;-81
2023/08/15 09:48:47;;;;;;;5.68;1.70;;;;;;;-145.69;nan;51620.63;5115770;28;20208;-81
2023/08/15 09:51:17;;;;;;;2.65;1.40;;;;;;;-145.69;nan;51573.09;5114664;28;20772;-82
2023/08/15 09:53:44;;;;;;;2.90;1.50;;;;;;;-145.69;nan;51579.03;5115184;28;20194;-83
2023/08/15 09:56:11;;;;;;;4.78;1.55;;;;;;;-145.69;nan;51588.94;5116134;28;20229;-81
2023/08/15 09:58:39;;;;;;;3.33;1.75;;;;;;;-145.69;nan;51596.88;5116038;28;20201;-82
2023/08/15 10:01:07;;;;;;;3.95;1.80;;;;;;;-145.69;nan;51575.09;5115115;28;20281;-82
2023/08/15 10:03:36;;;;;;;3.97;1.95;;;;;;;-145.69;nan;51577.06;5115473;28;20197;-83
2023/08/15 10:06:07;;;;;;;8.05;1.90;;;;;;;-145.69;nan;51559.25;5114330;28;20202;-84
2023/08/15 10:08:35;;;;;;;3.30;1.70;;;;;;;-145.69;nan;51608.75;5115539;28;20197;-82
2023/08/15 10:11:03;;;;;;;4.50;1.60;;;;;;;-145.69;nan;51565.19;5114657;28;20221;-81
2023/08/15 10:13:32;;;;;;;3.63;1.88;;;;;;;-145.69;nan;51563.22;5115271;28;20233;-81
2023/08/15 10:16:03;;;;;;;3.30;1.80;;;;;;;-145.69;nan;51553.31;5114853;28;20194;-81
2023/08/15 10:18:30;;;;;;;4.35;1.60;;;;;;;-145.69;nan;51545.38;5115169;28;20678;-81
2023/08/15 10:20:57;;;;;;;3.45;1.67;;;;;;;-145.69;nan;51541.44;5115029;28;20205;-81
2023/08/15 10:23:25;;;;;;;6.53;1.90;;;;;;;-145.69;nan;51551.31;5114913;28;20189;-81
2023/08/15 10:25:53;;;;;;;3.10;1.65;;;;;;;-145.69;nan;51555.28;5114891;28;20199;-83
2023/08/15 10:28:21;;;;;;;2.45;1.60;;;;;;;-145.69;nan;51577.06;5115084;28;20201;-83
2023/08/15 10:30:50;;;;;;;4.05;1.60;;;;;;;-145.69;nan;51531.53;5114365;28;20228;-81
2023/08/15 10:33:19;;;;;;;5.55;2.20;;;;;;;-145.69;nan;51529.53;5113596;28;20200;-83
2023/08/15 10:36:11;;;;;;;7.93;2.15;;;;;;;-145.69;nan;51539.44;5113591;28;20682;-81
2023/08/15 10:38:44;;;;;;;4.18;1.85;;;;;;;-145.69;nan;51517.66;5114748;28;20556;-82
2023/08/15 10:41:14;;;;;;;3.75;1.85;;;;;;;-145.69;nan;51561.22;5115239;28;20225;-82
2023/08/15 10:43:40;;;;;;;3.30;1.73;;;;;;;-145.69;nan;51543.41;5114932;28;20198;-82
2023/08/15 10:46:08;;;;;;;3.38;1.83;;;;;;;-145.69;nan;51553.31;5115228;28;20201;-82
2023/08/15 10:48:55;;;;;;;5.03;1.63;;;;;;;-145.69;nan;51535.50;5115674;28;20208;-83
2023/08/15 10:51:23;;;;;;;2.55;1.80;;;;;;;-145.69;nan;51571.13;5115322;28;20225;-82
2023/08/15 10:53:50;;;;;;;5.43;2.20;;;;;;;-145.69;nan;51557.25;5115198;28;20284;-82
2023/08/15 10:56:19;;;;;;;4.07;1.70;;;;;;;-145.69;nan;51565.19;5114907;28;20584;-82
2023/08/15 10:58:46;;;;;;;4.07;1.80;;;;;;;-145.69;nan;51553.31;5115935;28;20212;-83
2023/08/15 11:04:08;;;;;;;2.97;1.65;;;;;;;-145.69;nan;51553.31;5111369;28;20560;-81
2023/08/15 11:06:41;;;;;;;4.20;2.28;;;;;;;-145.69;nan;51575.09;5095495;28;20284;-82
2023/08/15 11:09:09;;;;;;;3.90;2.08;;;;;;;-145.69;nan;51565.19;5104226;28;20201;-83
2023/08/15 11:11:35;;;;;;;5.90;2.13;;;;;;;-145.69;nan;51586.97;5115885;28;20258;-82
2023/08/15 11:14:02;;;;;;;5.55;2.20;;;;;;;-145.69;nan;51573.09;5114088;28;20587;-85
2023/08/15 11:16:28;;;;;;;6.95;1.88;;;;;;;-145.69;nan;51521.63;5114720;28;20200;-83
2023/08/15 11:18:56;;;;;;;5.72;1.92;;;;;;;-145.69;nan;51561.22;5124358;27;20291;-83
2023/08/15 11:21:28;;;;;;;2.75;1.73;;;;;;;-145.69;nan;51559.25;5125016;27;20197;-83
2023/08/15 11:23:58;;;;;;;3.45;1.67;;;;;;;-145.69;nan;51559.25;5103770;28;20201;-84
2023/08/15 11:26:26;;;;;;;4.93;1.63;;;;;;;-145.69;nan;51553.31;5113836;28;20207;-83
2023/08/15 11:28:52;;;;;;;2.97;1.52;;;;;;;-145.69;nan;51577.06;5113385;28;20190;-81
2023/08/15 11:31:19;;;;;;;3.08;1.38;;;;;;;-145.69;nan;51586.97;5113650;28;20606;-83
2023/08/15 11:33:51;;;;;;;3.83;1.30;;;;;;;-145.69;nan;51583.00;5113912;28;20201;-86
2023/08/15 11:36:18;;;;;;;1.20;1.10;;;;;;;-145.69;nan;51592.91;5113805;28;20235;-81